createdAt,value
2022-08-03T00:01:28.087Z,56.92
2022-08-03T00:03:31.199Z,57.76
2022-08-03T00:05:34.428Z,58.22
2022-08-03T00:07:38.715Z,58.93
2022-08-03T00:09:41.593Z,58.31
2022-08-03T00:11:45.737Z,58.09
2022-08-03T00:13:48.968Z,58.54
2022-08-03T00:15:51.779Z,58.92
2022-08-03T00:17:54.616Z,59.10
2022-08-03T00:19:57.424Z,59.12
2022-08-03T00:22:00.253Z,58.93
2022-08-03T00:24:03.065Z,59.23
2022-08-03T00:26:06.038Z,61.91
2022-08-03T00:28:10.234Z,62.28
2022-08-03T00:30:13.242Z,62.72
2022-08-03T00:32:18.137Z,62.10
2022-08-03T00:34:30.945Z,61.87
2022-08-03T00:36:45.160Z,61.49
2022-08-03T00:38:47.948Z,61.21
2022-08-03T00:40:50.754Z,61.39
2022-08-03T00:42:55.625Z,61.12
2022-08-03T00:44:59.790Z,61.17
2022-08-03T00:47:02.608Z,61.17
2022-08-03T00:49:05.484Z,61.97
2022-08-03T00:51:08.498Z,62.02
2022-08-03T00:53:13.476Z,63.16
2022-08-03T00:55:16.856Z,63.09
2022-08-03T00:57:19.817Z,62.87
2022-08-03T00:59:22.972Z,62.30
2022-08-03T01:01:27.289Z,62.43
2022-08-03T01:03:35.307Z,63.26
2022-08-03T01:05:46.329Z,62.28
2022-08-03T01:08:03.782Z,64.29
2022-08-03T01:10:14.159Z,64.22
2022-08-03T01:12:26.303Z,65.77
2022-08-03T01:14:35.037Z,64.38
2022-08-03T01:16:46.020Z,63.65
2022-08-03T01:18:53.853Z,62.80
2022-08-03T01:20:59.139Z,61.85
2022-08-03T01:23:15.590Z,61.66
2022-08-03T01:25:29.605Z,61.49
2022-08-03T01:27:44.459Z,62.43
2022-08-03T01:29:58.418Z,62.70
2022-08-03T01:32:52.495Z,62.92
2022-08-03T01:34:33.253Z,62.85
2022-08-03T01:36:40.376Z,62.52
2022-08-03T01:38:45.339Z,62.17
2022-08-03T01:40:54.628Z,64.30
2022-08-03T01:43:00.606Z,70.10
2022-08-03T01:45:06.966Z,75.58
2022-08-03T01:47:13.651Z,78.64
2022-08-03T01:49:17.992Z,78.67
2022-08-03T01:51:22.068Z,74.94
2022-08-03T01:53:25.760Z,74.72
2022-08-03T01:55:32.064Z,73.39
2022-08-03T01:58:04.622Z,70.43
2022-08-03T02:00:02.299Z,69.01
2022-08-03T02:02:32.895Z,67.90
2022-08-03T02:04:39.583Z,66.83
2022-08-03T02:07:02.231Z,67.77
2022-08-03T02:09:07.271Z,68.33
2022-08-03T02:11:10.295Z,68.23
2022-08-03T02:13:15.446Z,67.13
2022-08-03T02:15:20.665Z,67.56
2022-08-03T02:17:39.278Z,67.59
2022-08-03T02:19:43.907Z,66.75
2022-08-03T02:21:55.682Z,67.65
2022-08-03T02:24:00.529Z,68.83
2022-08-03T02:26:05.597Z,66.77
2022-08-03T02:28:12.219Z,65.95
2022-08-03T02:30:15.368Z,65.22
2022-08-03T02:32:22.332Z,64.84
2022-08-03T02:34:30.407Z,64.09
2022-08-03T02:36:37.213Z,63.63
2022-08-03T02:38:43.737Z,63.21
2022-08-03T02:40:47.791Z,63.21
2022-08-03T02:42:54.491Z,63.08
2022-08-03T02:45:00.026Z,63.02
2022-08-03T02:47:08.889Z,62.96
2022-08-03T02:49:40.996Z,62.87
2022-08-03T02:51:41.239Z,62.98
2022-08-03T02:53:46.219Z,64.13
2022-08-03T02:55:50.127Z,64.66
2022-08-03T02:57:53.848Z,64.21
2022-08-03T02:59:58.681Z,64.10
2022-08-03T03:02:03.368Z,64.04
2022-08-03T03:04:07.330Z,63.82
2022-08-03T03:06:13.773Z,64.25
2022-08-03T03:08:25.892Z,64.76
2022-08-03T03:10:29.714Z,66.35
2022-08-03T03:12:34.362Z,67.79
2022-08-03T03:14:38.629Z,66.90
2022-08-03T03:16:43.191Z,68.84
2022-08-03T03:18:48.846Z,70.43
2022-08-03T03:20:53.976Z,72.95
2022-08-03T03:22:59.261Z,70.89
2022-08-03T03:25:04.497Z,69.00
2022-08-03T03:27:07.676Z,67.83
2022-08-03T03:29:10.883Z,75.99
2022-08-03T03:31:13.757Z,85.09
2022-08-03T03:33:16.729Z,90.77
2022-08-03T03:35:19.601Z,85.19
2022-08-03T03:37:22.561Z,80.35
2022-08-03T03:39:25.500Z,78.03
2022-08-03T03:41:30.004Z,76.49
2022-08-03T03:43:37.027Z,75.16
2022-08-03T03:45:42.380Z,73.51
2022-08-03T03:47:45.263Z,73.07
2022-08-03T03:49:48.199Z,72.04
2022-08-03T03:51:54.424Z,71.14
2022-08-03T03:53:58.134Z,70.49
2022-08-03T03:56:02.564Z,69.66
2022-08-03T03:58:07.700Z,70.42
2022-08-03T04:00:11.655Z,69.78
2022-08-03T04:02:14.785Z,69.10
2022-08-03T04:04:43.889Z,68.63
2022-08-03T04:07:04.305Z,75.20
2022-08-03T04:09:27.217Z,84.50
2022-08-03T04:11:35.805Z,79.32
2022-08-03T04:13:48.493Z,77.01
2022-08-03T04:15:52.873Z,76.37
2022-08-03T04:17:59.935Z,81.22
2022-08-03T04:20:04.845Z,77.53
2022-08-03T04:22:10.796Z,76.17
2022-08-03T04:24:15.943Z,75.45
2022-08-03T04:26:22.520Z,74.57
2022-08-03T04:28:31.037Z,74.74
2022-08-03T04:30:38.704Z,74.21
2022-08-03T04:32:46.032Z,74.36
2022-08-03T04:34:49.048Z,76.86
2022-08-03T04:36:58.617Z,76.73
2022-08-03T04:39:05.550Z,82.31
2022-08-03T04:41:09.941Z,80.09
2022-08-03T04:43:16.181Z,78.79
2022-08-03T04:45:20.489Z,75.85
2022-08-03T04:47:25.045Z,73.16
2022-08-03T04:49:30.074Z,72.20
2022-08-03T04:51:34.722Z,73.63
2022-08-03T04:53:38.465Z,71.92
2022-08-03T04:55:41.497Z,73.50
2022-08-03T04:57:44.335Z,74.97
2022-08-03T04:59:49.429Z,75.48
2022-08-03T05:01:52.266Z,77.76
2022-08-03T05:03:56.397Z,78.21
2022-08-03T05:06:01.487Z,79.22
2022-08-03T05:08:05.224Z,80.48
2022-08-03T05:10:16.340Z,81.46
2022-08-03T05:12:19.592Z,81.64
2022-08-03T05:14:28.006Z,82.07
2022-08-03T05:16:31.269Z,82.46
2022-08-03T05:18:34.085Z,82.62
2022-08-03T05:20:38.769Z,83.06
2022-08-03T05:22:41.704Z,81.47
2022-08-03T05:24:44.519Z,81.28
2022-08-03T05:26:47.463Z,82.84
2022-08-03T05:28:51.407Z,83.16
2022-08-03T05:30:54.352Z,82.16
2022-08-03T05:32:57.143Z,82.99
2022-08-03T05:34:59.937Z,83.18
2022-08-03T05:37:24.099Z,83.04
2022-08-03T05:39:26.855Z,83.35
2022-08-03T05:41:37.080Z,84.10
2022-08-03T05:43:40.303Z,84.19
2022-08-03T05:45:43.256Z,84.02
2022-08-03T05:47:46.068Z,85.07
2022-08-03T05:49:48.921Z,85.44
2022-08-03T05:52:00.149Z,86.06
2022-08-03T05:54:16.293Z,86.04
2022-08-03T05:56:23.466Z,86.10
2022-08-03T05:58:26.236Z,86.21
2022-08-03T06:00:33.013Z,85.64
2022-08-03T06:02:36.145Z,85.36
2022-08-03T06:04:39.061Z,85.16
2022-08-03T06:06:42.116Z,84.42
2022-08-03T06:08:46.002Z,84.74
2022-08-03T06:10:50.278Z,84.46
2022-08-03T06:12:53.073Z,84.33
2022-08-03T06:14:56.612Z,83.99
2022-08-03T06:16:59.334Z,83.58
2022-08-03T06:19:02.102Z,83.57
2022-08-03T06:21:15.450Z,82.61
2022-08-03T06:23:19.135Z,81.80
2022-08-03T06:25:21.935Z,80.66
2022-08-03T06:27:36.578Z,78.98
2022-08-03T06:29:40.345Z,77.83
2022-08-03T06:31:43.207Z,77.69
2022-08-03T06:34:30.460Z,77.70
2022-08-03T06:36:08.983Z,76.93
2022-08-03T06:38:14.955Z,77.20
2022-08-03T06:40:21.634Z,76.23
2022-08-03T06:42:26.135Z,75.54
2022-08-03T06:44:28.935Z,75.50
2022-08-03T06:46:31.701Z,74.35
2022-08-03T06:48:34.584Z,74.04
2022-08-03T06:50:44.427Z,74.43
2022-08-03T06:52:47.241Z,72.51
2022-08-03T06:54:50.006Z,71.87
2022-08-03T06:56:52.851Z,72.64
2022-08-03T06:58:57.043Z,73.03
2022-08-03T07:00:59.863Z,71.82
2022-08-03T07:03:02.635Z,71.37
2022-08-03T07:05:10.025Z,71.77
2022-08-03T07:07:12.829Z,71.98
2022-08-03T07:09:15.586Z,71.51
2022-08-03T07:11:18.529Z,69.83
2022-08-03T07:13:21.341Z,69.00
2022-08-03T07:15:38.319Z,68.95
2022-08-03T07:17:49.022Z,68.58
2022-08-03T07:19:51.887Z,67.73
2022-08-03T07:21:54.704Z,66.12
2022-08-03T07:24:03.531Z,66.51
2022-08-03T07:26:06.332Z,66.99
2022-08-03T07:28:09.279Z,66.30
2022-08-03T07:30:12.893Z,66.30
2022-08-03T07:32:17.330Z,66.25
2022-08-03T07:34:20.279Z,65.25
2022-08-03T07:36:24.693Z,64.61
2022-08-03T07:38:27.429Z,63.78
2022-08-03T07:40:31.670Z,64.24
2022-08-03T07:42:34.992Z,64.14
2022-08-03T07:44:39.249Z,64.24
2022-08-03T07:46:42.010Z,63.91
2022-08-03T07:48:46.175Z,63.31
2022-08-03T07:50:49.229Z,63.24
2022-08-03T07:52:53.411Z,62.85
2022-08-03T07:54:56.220Z,62.61
2022-08-03T07:56:58.963Z,61.90
2022-08-03T07:59:02.889Z,60.45
2022-08-03T08:01:05.845Z,60.75
2022-08-03T08:03:08.933Z,59.72
2022-08-03T08:05:13.511Z,59.23
2022-08-03T08:07:16.309Z,58.81
2022-08-03T08:09:21.227Z,58.28
2022-08-03T08:11:24.009Z,58.57
2022-08-03T08:13:26.981Z,57.40
2022-08-03T08:15:29.956Z,57.21
2022-08-03T08:17:32.796Z,55.64
2022-08-03T08:19:37.501Z,56.36
2022-08-03T08:21:53.100Z,56.38
2022-08-03T08:24:10.952Z,55.97
2022-08-03T08:26:21.156Z,55.32
2022-08-03T08:28:32.384Z,54.92
2022-08-03T08:30:36.524Z,54.40
2022-08-03T08:32:39.390Z,54.00
2022-08-03T08:34:42.149Z,53.26
2022-08-03T08:36:46.266Z,53.02
2022-08-03T08:38:50.924Z,51.85
2022-08-03T08:40:56.673Z,51.31
2022-08-03T08:42:59.526Z,51.70
2022-08-03T08:45:02.414Z,51.14
2022-08-03T08:47:05.418Z,49.63
2022-08-03T08:49:10.685Z,50.13
2022-08-03T08:51:14.450Z,50.08
2022-08-03T08:53:22.786Z,49.27
2022-08-03T08:55:59.522Z,48.15
2022-08-03T08:58:05.160Z,48.00
2022-08-03T09:00:11.665Z,47.10
2022-08-03T09:02:14.938Z,45.67
2022-08-03T09:04:18.633Z,46.55
2022-08-03T09:06:21.595Z,45.29
2022-08-03T09:08:25.877Z,45.90
2022-08-03T09:10:28.613Z,45.31
2022-08-03T09:12:41.884Z,44.28
2022-08-03T09:15:07.426Z,44.00
2022-08-03T09:17:12.508Z,43.31
2022-08-03T09:19:20.131Z,43.08
2022-08-03T09:21:31.805Z,42.60
2022-08-03T09:24:01.332Z,41.99
2022-08-03T09:26:05.847Z,42.04
2022-08-03T09:28:11.296Z,41.44
2022-08-03T09:30:19.100Z,41.93
2022-08-03T09:32:38.548Z,41.70
2022-08-03T09:34:41.388Z,41.22
2022-08-03T09:36:46.453Z,40.31
2022-08-03T09:39:03.700Z,39.11
2022-08-03T09:41:19.530Z,38.78
2022-08-03T09:43:24.114Z,39.22
2022-08-03T09:45:27.871Z,39.17
2022-08-03T09:47:32.667Z,38.44
2022-08-03T09:49:35.654Z,37.55
2022-08-03T09:52:32.450Z,37.46
2022-08-03T09:54:05.584Z,36.68
2022-08-03T09:56:35.491Z,36.50
2022-08-03T09:58:33.517Z,36.10
2022-08-03T10:00:54.969Z,35.28
2022-08-03T10:03:05.702Z,35.08
2022-08-03T10:05:10.578Z,34.90
2022-08-03T10:07:22.152Z,35.19
2022-08-03T10:09:26.299Z,35.40
2022-08-03T10:11:30.753Z,35.27
2022-08-03T10:13:34.622Z,35.87
2022-08-03T10:16:23.180Z,34.11
2022-08-03T10:18:00.326Z,34.20
2022-08-03T10:20:04.089Z,33.43
2022-08-03T10:22:11.571Z,33.64
2022-08-03T10:24:18.006Z,33.38
2022-08-03T10:26:26.248Z,33.65
2022-08-03T10:28:37.594Z,34.40
2022-08-03T10:30:45.085Z,33.82
2022-08-03T10:32:53.486Z,33.67
2022-08-03T10:35:20.137Z,32.92
2022-08-03T10:37:27.874Z,32.79
2022-08-03T10:39:31.628Z,32.90
2022-08-03T10:41:41.010Z,32.18
2022-08-03T10:43:49.567Z,32.24
2022-08-03T10:45:53.280Z,32.03
2022-08-03T10:47:58.075Z,31.20
2022-08-03T10:50:01.515Z,32.69
2022-08-03T10:52:13.039Z,32.40
2022-08-03T10:55:03.400Z,31.89
2022-08-03T10:57:25.106Z,31.07
2022-08-03T10:59:59.299Z,31.23
2022-08-03T11:02:02.115Z,30.73
2022-08-03T11:04:26.564Z,29.58
2022-08-03T11:06:37.244Z,28.97
2022-08-03T11:08:40.529Z,28.56
2022-08-03T11:10:43.745Z,28.60
2022-08-03T11:12:48.971Z,28.01
2022-08-03T11:14:55.234Z,28.63
2022-08-03T11:17:14.159Z,28.59
2022-08-03T11:19:22.455Z,27.88
2022-08-03T11:21:58.875Z,27.28
2022-08-03T11:24:04.682Z,28.66
2022-08-03T11:26:13.223Z,28.08
2022-08-03T11:28:30.540Z,27.55
2022-08-03T11:30:33.724Z,26.88
2022-08-03T11:32:58.036Z,27.20
2022-08-03T11:35:11.685Z,27.21
2022-08-03T11:37:29.919Z,26.67
2022-08-03T11:39:40.506Z,27.51
2022-08-03T11:41:45.425Z,27.45
2022-08-03T11:43:49.866Z,26.54
2022-08-03T11:45:59.042Z,26.78
2022-08-03T11:48:14.562Z,26.79
2022-08-03T11:50:18.932Z,26.70
2022-08-03T11:52:27.339Z,26.14
2022-08-03T11:54:32.346Z,26.02
2022-08-03T11:56:45.779Z,25.94
2022-08-03T11:59:09.334Z,25.48
2022-08-03T12:01:21.189Z,25.44
2022-08-03T12:03:25.930Z,25.24
2022-08-03T12:05:37.316Z,24.80
2022-08-03T12:08:04.638Z,23.80
2022-08-03T12:10:10.810Z,23.90
2022-08-03T12:12:17.207Z,24.04
2022-08-03T12:14:50.917Z,23.86
2022-08-03T12:16:48.418Z,24.04
2022-08-03T12:18:56.793Z,24.26
2022-08-03T12:21:07.200Z,24.75
2022-08-03T12:23:11.112Z,23.42
2022-08-03T12:25:38.884Z,23.27
2022-08-03T12:27:42.813Z,24.11
2022-08-03T12:29:58.177Z,24.32
2022-08-03T12:32:01.790Z,24.33
2022-08-03T12:34:08.813Z,24.95
2022-08-03T12:36:12.179Z,24.15
2022-08-03T12:38:19.923Z,24.39
2022-08-03T12:40:28.349Z,24.43
2022-08-03T12:42:31.555Z,23.95
2022-08-03T12:44:36.180Z,23.78
2022-08-03T12:46:47.069Z,23.19
2022-08-03T12:49:06.059Z,24.10
2022-08-03T12:51:10.919Z,23.83
2022-08-03T12:53:13.792Z,23.15
2022-08-03T12:55:21.178Z,23.69
2022-08-03T12:57:23.939Z,22.57
2022-08-03T12:59:32.316Z,22.56
2022-08-03T13:01:55.127Z,22.60
2022-08-03T13:03:58.969Z,22.31
2022-08-03T13:06:04.118Z,20.86
2022-08-03T13:08:19.137Z,20.80
2022-08-03T13:10:30.351Z,21.26
2022-08-03T13:12:33.138Z,21.00
2022-08-03T13:14:36.151Z,21.68
2022-08-03T13:16:38.946Z,20.93
2022-08-03T13:18:43.109Z,21.21
2022-08-03T13:20:46.911Z,21.32
2022-08-03T13:22:49.942Z,20.65
2022-08-03T13:24:55.846Z,21.30
2022-08-03T13:26:58.587Z,21.24
2022-08-03T13:29:01.345Z,20.52
2022-08-03T13:31:04.230Z,21.15
2022-08-03T13:33:09.970Z,20.60
2022-08-03T13:35:16.654Z,21.14
2022-08-03T13:37:19.547Z,21.07
2022-08-03T13:39:22.523Z,20.80
2022-08-03T13:41:35.559Z,21.12
2022-08-03T13:43:38.327Z,20.74
2022-08-03T13:45:42.870Z,20.74
2022-08-03T13:47:49.576Z,21.13
2022-08-03T13:50:00.072Z,21.34
2022-08-03T13:52:06.720Z,20.93
2022-08-03T13:54:09.895Z,20.90
2022-08-03T13:56:12.715Z,20.86
2022-08-03T13:58:15.808Z,21.23
2022-08-03T14:00:27.532Z,21.05
2022-08-03T14:02:31.706Z,20.78
2022-08-03T14:04:34.494Z,20.97
2022-08-03T14:06:37.209Z,20.44
2022-08-03T14:08:41.559Z,20.99
2022-08-03T14:10:46.121Z,20.85
2022-08-03T14:12:49.083Z,21.03
2022-08-03T14:14:51.827Z,21.25
2022-08-03T14:16:55.326Z,20.84
2022-08-03T14:18:59.486Z,21.14
2022-08-03T14:21:07.523Z,21.15
2022-08-03T14:23:10.335Z,20.90
2022-08-03T14:25:14.548Z,20.61
2022-08-03T14:27:20.165Z,20.60
2022-08-03T14:29:23.118Z,21.24
2022-08-03T14:32:11.246Z,21.03
2022-08-03T14:33:49.883Z,20.42
2022-08-03T14:35:53.635Z,21.30
2022-08-03T14:37:56.473Z,21.11
2022-08-03T14:40:00.389Z,21.03
2022-08-03T14:42:05.440Z,20.70
2022-08-03T14:44:08.555Z,20.30
2022-08-03T14:46:11.366Z,21.04
2022-08-03T14:50:32.447Z,20.76
2022-08-03T14:50:43.169Z,20.16
2022-08-03T14:52:48.380Z,20.04
2022-08-03T14:54:51.121Z,19.95
2022-08-03T14:56:53.871Z,19.82
2022-08-03T14:58:58.023Z,19.92
2022-08-03T15:01:00.858Z,19.94
2022-08-03T15:03:04.760Z,19.88
2022-08-03T15:05:08.945Z,19.73
2022-08-03T15:07:11.970Z,19.82
2022-08-03T15:09:23.559Z,19.86
2022-08-03T15:11:26.818Z,19.92
2022-08-03T15:13:29.568Z,20.12
2022-08-03T15:15:33.932Z,20.55
2022-08-03T15:17:36.672Z,19.73
2022-08-03T15:20:03.302Z,19.50
2022-08-03T15:22:02.955Z,19.20
2022-08-03T15:24:06.368Z,19.29
2022-08-03T15:26:32.873Z,19.06
2022-08-03T15:28:32.170Z,19.22
2022-08-03T15:30:37.632Z,19.45
2022-08-03T15:32:40.645Z,19.24
2022-08-03T15:34:50.225Z,19.18
2022-08-03T15:36:53.585Z,19.07
2022-08-03T15:38:56.436Z,18.93
2022-08-03T15:40:59.315Z,18.55
2022-08-03T15:43:02.506Z,18.60
2022-08-03T15:45:07.417Z,18.54
2022-08-03T15:47:11.456Z,18.25
2022-08-03T15:49:14.266Z,18.02
2022-08-03T15:51:17.353Z,17.88
2022-08-03T15:53:20.148Z,17.78
2022-08-03T15:55:23.023Z,18.17
2022-08-03T15:57:25.781Z,18.28
2022-08-03T15:59:28.496Z,18.42
2022-08-03T16:01:31.778Z,18.24
2022-08-03T16:03:36.175Z,17.87
2022-08-03T16:05:38.972Z,18.82
2022-08-03T16:08:03.951Z,18.33
2022-08-03T16:10:08.517Z,18.12
2022-08-03T16:12:16.126Z,17.48
2022-08-03T16:14:31.386Z,17.73
2022-08-03T16:16:40.453Z,17.30
2022-08-03T16:18:44.534Z,18.06
2022-08-03T16:20:47.844Z,17.80
2022-08-03T16:22:51.040Z,17.55
2022-08-03T16:24:54.791Z,18.53
2022-08-03T16:26:57.750Z,18.28
2022-08-03T16:29:03.348Z,18.14
2022-08-03T16:31:08.969Z,17.94
2022-08-03T16:33:16.573Z,18.21
2022-08-03T16:35:23.203Z,18.16
2022-08-03T16:37:41.399Z,19.54
2022-08-03T16:39:48.637Z,18.22
2022-08-03T16:41:54.435Z,18.09
2022-08-03T16:44:09.512Z,17.94
2022-08-03T16:46:12.679Z,17.76
2022-08-03T16:48:15.979Z,17.68
2022-08-03T16:50:20.008Z,18.29
2022-08-03T16:52:24.482Z,18.32
2022-08-03T16:54:27.992Z,18.58
2022-08-03T16:56:32.071Z,18.12
2022-08-03T16:58:42.470Z,18.39
2022-08-03T17:00:47.216Z,17.88
2022-08-03T17:02:56.279Z,17.86
2022-08-03T17:04:59.172Z,17.35
2022-08-03T17:07:04.504Z,17.36
2022-08-03T17:09:11.895Z,17.54
2022-08-03T17:11:14.661Z,17.17
2022-08-03T17:13:22.576Z,17.52
2022-08-03T17:15:38.224Z,17.61
2022-08-03T17:17:55.972Z,17.95
2022-08-03T17:19:59.812Z,17.93
2022-08-03T17:22:05.172Z,18.12
2022-08-03T17:24:15.056Z,18.08
2022-08-03T17:26:24.541Z,18.20
2022-08-03T17:28:48.489Z,18.40
2022-08-03T17:31:22.928Z,18.53
2022-08-03T17:33:35.792Z,18.91
2022-08-03T17:35:38.741Z,19.46
2022-08-03T17:37:57.481Z,19.34
2022-08-03T17:40:07.912Z,19.40
2022-08-03T17:42:29.536Z,19.72
2022-08-03T17:44:46.240Z,19.79
2022-08-03T17:46:51.306Z,19.81
2022-08-03T17:48:54.112Z,19.77
2022-08-03T17:51:04.146Z,19.93
2022-08-03T17:53:15.657Z,20.31
2022-08-03T17:55:56.779Z,20.07
2022-08-03T17:58:02.630Z,20.21
2022-08-03T18:00:22.779Z,20.62
2022-08-03T18:02:54.655Z,20.64
2022-08-03T18:05:16.588Z,21.24
2022-08-03T18:07:23.274Z,21.32
2022-08-03T18:10:06.112Z,22.42
2022-08-03T18:12:15.030Z,23.64
2022-08-03T18:14:26.477Z,24.64
2022-08-03T18:16:35.149Z,25.16
2022-08-03T18:18:43.593Z,26.54
2022-08-03T18:20:48.543Z,27.29
2022-08-03T18:22:51.764Z,27.74
2022-08-03T18:24:56.953Z,28.36
2022-08-03T18:27:02.324Z,28.88
2022-08-03T18:29:08.967Z,29.37
2022-08-03T18:32:00.175Z,29.91
2022-08-03T18:34:16.801Z,30.30
2022-08-03T18:36:03.716Z,30.26
2022-08-03T18:38:10.424Z,31.33
2022-08-03T18:40:13.811Z,32.00
2022-08-03T18:42:26.392Z,31.93
2022-08-03T18:44:46.459Z,33.27
2022-08-03T18:47:07.167Z,33.62
2022-08-03T18:49:14.182Z,33.75
2022-08-03T18:51:28.504Z,34.20
2022-08-03T18:54:03.097Z,34.98
2022-08-03T18:56:10.959Z,34.99
2022-08-03T18:58:20.554Z,35.08
2022-08-03T19:00:35.134Z,35.67
2022-08-03T19:02:51.231Z,35.71
2022-08-03T19:04:55.439Z,36.49
2022-08-03T19:07:04.914Z,36.73
2022-08-03T19:09:18.085Z,36.67
2022-08-03T19:11:28.149Z,37.30
2022-08-03T19:13:36.595Z,37.81
2022-08-03T19:18:10.891Z,38.54
2022-08-03T19:20:14.533Z,38.02
2022-08-03T19:22:20.776Z,38.32
2022-08-03T19:24:26.330Z,38.56
2022-08-03T19:26:30.906Z,38.67
2022-08-03T19:28:35.098Z,38.84
2022-08-03T19:30:40.719Z,39.35
2022-08-03T19:32:51.252Z,40.06
2022-08-03T19:34:54.379Z,40.49
2022-08-03T19:36:59.285Z,40.69
2022-08-03T19:39:03.734Z,41.32
2022-08-03T19:41:14.749Z,40.83
2022-08-03T19:43:21.685Z,40.33
2022-08-03T19:46:04.996Z,40.23
2022-08-03T19:48:09.815Z,41.53
2022-08-03T19:50:14.953Z,42.08
2022-08-03T19:52:24.473Z,42.60
2022-08-03T19:54:53.057Z,42.22
2022-08-03T19:57:04.816Z,42.15
2022-08-03T19:59:13.123Z,42.33
2022-08-03T20:01:21.325Z,42.56
2022-08-03T20:03:27.628Z,42.55
2022-08-03T20:05:52.184Z,43.40
2022-08-03T20:08:01.027Z,46.16
2022-08-03T20:10:08.818Z,45.05
2022-08-03T20:12:12.036Z,45.74
2022-08-03T20:14:20.833Z,45.38
2022-08-03T20:16:29.375Z,45.63
2022-08-03T20:18:39.151Z,46.40
2022-08-03T20:20:43.329Z,46.46
2022-08-03T20:22:51.319Z,46.43
2022-08-03T20:24:56.701Z,46.17
2022-08-03T20:27:01.328Z,46.92
2022-08-03T20:29:10.155Z,47.10
2022-08-03T20:31:13.585Z,47.54
2022-08-03T20:33:18.850Z,47.15
2022-08-03T20:35:23.746Z,46.87
2022-08-03T20:37:26.603Z,47.44
2022-08-03T20:39:33.449Z,47.05
2022-08-03T20:41:36.444Z,46.45
2022-08-03T20:43:41.740Z,46.39
2022-08-03T20:45:59.074Z,47.49
2022-08-03T20:48:05.821Z,47.31
2022-08-03T20:50:12.170Z,47.02
2022-08-03T20:52:18.417Z,47.21
2022-08-03T20:54:31.341Z,47.33
2022-08-03T20:56:35.903Z,46.40
2022-08-03T20:58:41.629Z,46.82
2022-08-03T21:00:46.237Z,46.65
2022-08-03T21:02:49.383Z,47.62
2022-08-03T21:04:52.159Z,47.55
2022-08-03T21:07:00.597Z,47.84
2022-08-03T21:09:07.775Z,48.61
2022-08-03T21:11:15.285Z,47.99
2022-08-03T21:13:01.804Z,37.66
2022-08-03T21:13:25.616Z,48.19
2022-08-03T21:16:11.708Z,47.76
2022-08-03T21:17:56.584Z,47.21
2022-08-03T21:20:03.169Z,48.17
2022-08-03T21:22:09.777Z,47.80
2022-08-03T21:24:14.952Z,48.38
2022-08-03T21:26:18.887Z,47.78
2022-08-03T21:28:24.676Z,49.30
2022-08-03T21:30:31.783Z,49.30
2022-08-03T21:32:34.800Z,49.32
2022-08-03T21:34:37.701Z,48.44
2022-08-03T21:36:40.430Z,49.33
2022-08-03T21:38:43.861Z,48.98
2022-08-03T21:40:54.626Z,48.52
2022-08-03T21:42:57.368Z,47.92
2022-08-03T21:45:00.127Z,50.03
2022-08-03T21:47:03.359Z,49.70
2022-08-03T21:50:04.203Z,50.04
2022-08-03T21:51:33.815Z,50.27
2022-08-03T21:54:04.395Z,50.60
2022-08-03T21:56:07.710Z,50.77
2022-08-03T21:58:12.825Z,50.80
2022-08-03T22:00:18.028Z,51.21
2022-08-03T22:02:24.351Z,51.49
2022-08-03T22:04:55.275Z,51.08
2022-08-03T22:06:52.121Z,50.79
2022-08-03T22:08:55.068Z,51.49
2022-08-03T22:10:58.156Z,52.13
2022-08-03T22:13:08.649Z,50.58
2022-08-03T22:15:13.353Z,51.98
2022-08-03T22:17:54.109Z,52.47
2022-08-03T22:19:39.174Z,50.92
2022-08-03T22:21:43.237Z,51.96
2022-08-03T22:23:48.926Z,51.88
2022-08-03T22:25:53.986Z,52.73
2022-08-03T22:27:58.082Z,52.39
2022-08-03T22:30:05.250Z,50.36
2022-08-03T22:32:08.321Z,52.17
2022-08-03T22:34:11.098Z,51.27
2022-08-03T22:36:14.448Z,52.46
2022-08-03T22:38:18.120Z,53.01
2022-08-03T22:40:20.982Z,52.35
2022-08-03T22:42:25.351Z,51.68
2022-08-03T22:44:29.012Z,51.49
2022-08-03T22:46:34.971Z,53.28
2022-08-03T22:48:41.353Z,53.65
2022-08-03T22:50:45.319Z,53.71
2022-08-03T22:52:48.322Z,53.27
2022-08-03T22:54:54.547Z,52.25
2022-08-03T22:56:58.962Z,53.92
2022-08-03T22:59:01.685Z,54.38
2022-08-03T23:01:28.764Z,54.28
2022-08-03T23:04:00.056Z,53.67
2022-08-03T23:06:03.614Z,53.92
2022-08-03T23:08:09.571Z,53.51
2022-08-03T23:10:14.843Z,54.21
2022-08-03T23:12:20.581Z,52.59
2022-08-03T23:14:24.073Z,53.44
2022-08-03T23:16:29.671Z,54.44
2022-08-03T23:18:37.470Z,53.14
2022-08-03T23:20:40.738Z,54.78
2022-08-03T23:22:48.680Z,54.38
2022-08-03T23:24:54.845Z,53.12
2022-08-03T23:26:58.131Z,53.60
2022-08-03T23:29:02.265Z,53.61
2022-08-03T23:31:05.437Z,52.14
2022-08-03T23:33:10.318Z,52.63
2022-08-03T23:36:27.785Z,52.21
2022-08-03T23:38:04.675Z,53.69
2022-08-03T23:40:23.261Z,53.87
2022-08-03T23:42:27.203Z,53.95
2022-08-03T23:44:32.230Z,54.83
2022-08-03T23:46:37.121Z,53.90
2022-08-03T23:48:39.832Z,53.33
2022-08-03T23:50:46.948Z,53.59
2022-08-03T23:52:57.853Z,52.57
2022-08-03T23:55:14.036Z,54.20
2022-08-03T23:57:26.535Z,54.20
2022-08-03T23:59:36.267Z,53.75
